sensor_id;sensor_type;location;lat;lon;timestamp;P1;durP1;ratioP1;P2;durP2;ratioP2
846;SDS011;410;48.954;9.474;2023-03-21T00:01:50;9.43;;;8.00;;
846;SDS011;410;48.954;9.474;2023-03-21T00:03:55;8.73;;;7.83;;
846;SDS011;410;48.954;9.474;2023-03-21T00:05:58;11.13;;;8.03;;
846;SDS011;410;48.954;9.474;2023-03-21T00:08:01;9.20;;;8.30;;
846;SDS011;410;48.954;9.474;2023-03-21T00:10:05;9.03;;;8.03;;
846;SDS011;410;48.954;9.474;2023-03-21T00:12:18;10.03;;;8.10;;
846;SDS011;410;48.954;9.474;2023-03-21T00:14:21;8.80;;;7.70;;
846;SDS011;410;48.954;9.474;2023-03-21T00:16:26;11.37;;;7.17;;
846;SDS011;410;48.954;9.474;2023-03-21T00:18:41;8.20;;;6.73;;
846;SDS011;410;48.954;9.474;2023-03-21T00:20:55;8.63;;;6.67;;
846;SDS011;410;48.954;9.474;2023-03-21T00:23:19;7.90;;;7.10;;
846;SDS011;410;48.954;9.474;2023-03-21T00:25:22;7.73;;;6.93;;
846;SDS011;410;48.954;9.474;2023-03-21T00:27:25;9.23;;;7.20;;
846;SDS011;410;48.954;9.474;2023-03-21T00:29:49;9.57;;;6.90;;
846;SDS011;410;48.954;9.474;2023-03-21T00:31:52;9.40;;;6.93;;
846;SDS011;410;48.954;9.474;2023-03-21T00:33:58;9.63;;;7.33;;
846;SDS011;410;48.954;9.474;2023-03-21T00:36:06;10.57;;;7.23;;
846;SDS011;410;48.954;9.474;2023-03-21T00:38:10;7.53;;;6.83;;
846;SDS011;410;48.954;9.474;2023-03-21T00:40:14;8.53;;;6.90;;
846;SDS011;410;48.954;9.474;2023-03-21T00:42:28;7.80;;;6.10;;
846;SDS011;410;48.954;9.474;2023-03-21T00:44:31;7.23;;;6.27;;
846;SDS011;410;48.954;9.474;2023-03-21T00:46:37;7.20;;;6.13;;
846;SDS011;410;48.954;9.474;2023-03-21T00:49:00;7.67;;;6.10;;
846;SDS011;410;48.954;9.474;2023-03-21T00:51:09;7.17;;;6.20;;
846;SDS011;410;48.954;9.474;2023-03-21T00:53:16;7.60;;;6.60;;
846;SDS011;410;48.954;9.474;2023-03-21T00:55:19;7.60;;;6.50;;
846;SDS011;410;48.954;9.474;2023-03-21T00:57:22;6.97;;;6.27;;
846;SDS011;410;48.954;9.474;2023-03-21T00:59:39;7.37;;;6.67;;
846;SDS011;410;48.954;9.474;2023-03-21T01:01:43;7.57;;;6.77;;
846;SDS011;410;48.954;9.474;2023-03-21T01:03:47;10.10;;;7.00;;
846;SDS011;410;48.954;9.474;2023-03-21T01:06:05;7.73;;;6.90;;
846;SDS011;410;48.954;9.474;2023-03-21T01:08:10;7.50;;;6.70;;
846;SDS011;410;48.954;9.474;2023-03-21T01:10:27;9.87;;;6.43;;
846;SDS011;410;48.954;9.474;2023-03-21T01:12:30;8.70;;;7.20;;
846;SDS011;410;48.954;9.474;2023-03-21T01:14:33;9.40;;;6.77;;
846;SDS011;410;48.954;9.474;2023-03-21T01:16:36;9.47;;;7.30;;
846;SDS011;410;48.954;9.474;2023-03-21T01:18:40;7.50;;;6.70;;
846;SDS011;410;48.954;9.474;2023-03-21T01:20:43;8.10;;;6.63;;
846;SDS011;410;48.954;9.474;2023-03-21T01:22:47;8.37;;;7.27;;
846;SDS011;410;48.954;9.474;2023-03-21T01:24:52;9.27;;;7.37;;
846;SDS011;410;48.954;9.474;2023-03-21T01:27:06;10.20;;;7.00;;
846;SDS011;410;48.954;9.474;2023-03-21T01:29:09;7.50;;;6.80;;
846;SDS011;410;48.954;9.474;2023-03-21T01:31:14;8.70;;;7.03;;
846;SDS011;410;48.954;9.474;2023-03-21T01:33:18;11.07;;;7.33;;
846;SDS011;410;48.954;9.474;2023-03-21T01:35:22;8.93;;;7.07;;
846;SDS011;410;48.954;9.474;2023-03-21T01:37:26;9.00;;;6.57;;
846;SDS011;410;48.954;9.474;2023-03-21T01:39:29;10.07;;;7.77;;
846;SDS011;410;48.954;9.474;2023-03-21T01:41:37;7.90;;;6.60;;
846;SDS011;410;48.954;9.474;2023-03-21T01:44:03;11.43;;;7.10;;
846;SDS011;410;48.954;9.474;2023-03-21T01:49:17;8.47;;;7.00;;
846;SDS011;410;48.954;9.474;2023-03-21T01:51:25;8.03;;;7.03;;
846;SDS011;410;48.954;9.474;2023-03-21T01:53:31;8.10;;;7.27;;
846;SDS011;410;48.954;9.474;2023-03-21T01:55:35;9.43;;;7.03;;
846;SDS011;410;48.954;9.474;2023-03-21T01:57:48;9.23;;;7.13;;
846;SDS011;410;48.954;9.474;2023-03-21T02:00:46;8.83;;;7.20;;
846;SDS011;410;48.954;9.474;2023-03-21T02:03:03;8.77;;;7.00;;
846;SDS011;410;48.954;9.474;2023-03-21T02:05:31;9.47;;;7.30;;
846;SDS011;410;48.954;9.474;2023-03-21T02:07:39;7.73;;;6.80;;
846;SDS011;410;48.954;9.474;2023-03-21T02:09:48;10.00;;;7.40;;
846;SDS011;410;48.954;9.474;2023-03-21T02:11:55;7.83;;;7.03;;
846;SDS011;410;48.954;9.474;2023-03-21T02:14:04;9.40;;;7.20;;
846;SDS011;410;48.954;9.474;2023-03-21T02:16:27;10.20;;;8.00;;
846;SDS011;410;48.954;9.474;2023-03-21T02:18:36;8.93;;;7.63;;
846;SDS011;410;48.954;9.474;2023-03-21T02:29:11;7.73;;;6.90;;
846;SDS011;410;48.954;9.474;2023-03-21T02:31:29;9.13;;;7.27;;
846;SDS011;410;48.954;9.474;2023-03-21T02:36:23;7.93;;;6.40;;
846;SDS011;410;48.954;9.474;2023-03-21T02:38:30;7.23;;;6.40;;
846;SDS011;410;48.954;9.474;2023-03-21T02:40:38;10.10;;;6.53;;
846;SDS011;410;48.954;9.474;2023-03-21T02:42:51;11.63;;;7.83;;
846;SDS011;410;48.954;9.474;2023-03-21T02:45:07;7.67;;;6.30;;
846;SDS011;410;48.954;9.474;2023-03-21T02:47:15;7.30;;;6.43;;
846;SDS011;410;48.954;9.474;2023-03-21T02:49:21;8.20;;;6.63;;
846;SDS011;410;48.954;9.474;2023-03-21T02:51:29;8.37;;;6.50;;
846;SDS011;410;48.954;9.474;2023-03-21T02:53:36;7.80;;;6.13;;
846;SDS011;410;48.954;9.474;2023-03-21T02:55:41;7.60;;;6.43;;
846;SDS011;410;48.954;9.474;2023-03-21T02:57:45;7.43;;;6.20;;
846;SDS011;410;48.954;9.474;2023-03-21T02:59:50;9.00;;;6.80;;
846;SDS011;410;48.954;9.474;2023-03-21T03:02:06;9.07;;;5.77;;
846;SDS011;410;48.954;9.474;2023-03-21T03:04:19;8.50;;;6.60;;
846;SDS011;410;48.954;9.474;2023-03-21T03:06:23;10.37;;;6.70;;
846;SDS011;410;48.954;9.474;2023-03-21T03:08:31;8.70;;;6.10;;
846;SDS011;410;48.954;9.474;2023-03-21T03:11:03;9.53;;;6.40;;
846;SDS011;410;48.954;9.474;2023-03-21T03:13:14;10.03;;;6.60;;
846;SDS011;410;48.954;9.474;2023-03-21T03:15:26;7.17;;;6.10;;
846;SDS011;410;48.954;9.474;2023-03-21T03:17:38;8.70;;;6.03;;
846;SDS011;410;48.954;9.474;2023-03-21T03:19:51;8.00;;;6.30;;
846;SDS011;410;48.954;9.474;2023-03-21T03:22:08;8.17;;;6.30;;
846;SDS011;410;48.954;9.474;2023-03-21T03:24:14;8.80;;;6.27;;
846;SDS011;410;48.954;9.474;2023-03-21T03:26:23;7.27;;;6.07;;
846;SDS011;410;48.954;9.474;2023-03-21T03:28:32;7.27;;;6.30;;
846;SDS011;410;48.954;9.474;2023-03-21T03:30:43;8.43;;;6.67;;
846;SDS011;410;48.954;9.474;2023-03-21T03:33:09;7.10;;;6.13;;
846;SDS011;410;48.954;9.474;2023-03-21T03:35:17;8.43;;;6.60;;
846;SDS011;410;48.954;9.474;2023-03-21T03:37:22;8.10;;;6.40;;
846;SDS011;410;48.954;9.474;2023-03-21T03:39:32;10.20;;;6.10;;
846;SDS011;410;48.954;9.474;2023-03-21T03:41:40;7.33;;;6.53;;
846;SDS011;410;48.954;9.474;2023-03-21T03:44:09;10.37;;;8.70;;
846;SDS011;410;48.954;9.474;2023-03-21T03:46:21;11.23;;;8.53;;
846;SDS011;410;48.954;9.474;2023-03-21T03:48:31;8.10;;;7.30;;
846;SDS011;410;48.954;9.474;2023-03-21T03:50:37;8.30;;;6.70;;
846;SDS011;410;48.954;9.474;2023-03-21T03:52:46;9.30;;;8.00;;
846;SDS011;410;48.954;9.474;2023-03-21T03:55:01;9.03;;;7.00;;
846;SDS011;410;48.954;9.474;2023-03-21T03:57:09;9.30;;;6.80;;
846;SDS011;410;48.954;9.474;2023-03-21T03:59:14;10.63;;;7.13;;
846;SDS011;410;48.954;9.474;2023-03-21T04:01:43;8.60;;;6.80;;
846;SDS011;410;48.954;9.474;2023-03-21T04:03:46;8.73;;;6.90;;
846;SDS011;410;48.954;9.474;2023-03-21T04:05:59;7.90;;;6.10;;
846;SDS011;410;48.954;9.474;2023-03-21T04:08:02;9.10;;;6.50;;
846;SDS011;410;48.954;9.474;2023-03-21T04:10:15;9.50;;;7.10;;
846;SDS011;410;48.954;9.474;2023-03-21T04:12:18;9.13;;;6.90;;
846;SDS011;410;48.954;9.474;2023-03-21T04:14:44;7.83;;;7.03;;
846;SDS011;410;48.954;9.474;2023-03-21T04:16:51;7.00;;;6.30;;
846;SDS011;410;48.954;9.474;2023-03-21T04:18:55;7.80;;;6.60;;
846;SDS011;410;48.954;9.474;2023-03-21T04:20:58;7.27;;;6.30;;
846;SDS011;410;48.954;9.474;2023-03-21T04:23:03;10.70;;;6.70;;
846;SDS011;410;48.954;9.474;2023-03-21T04:25:07;8.57;;;7.30;;
846;SDS011;410;48.954;9.474;2023-03-21T04:27:13;8.30;;;6.77;;
846;SDS011;410;48.954;9.474;2023-03-21T04:29:21;12.10;;;7.20;;
846;SDS011;410;48.954;9.474;2023-03-21T04:31:44;12.27;;;6.93;;
846;SDS011;410;48.954;9.474;2023-03-21T04:33:51;8.80;;;6.73;;
846;SDS011;410;48.954;9.474;2023-03-21T04:35:55;8.87;;;6.63;;
846;SDS011;410;48.954;9.474;2023-03-21T04:38:02;8.17;;;6.07;;
846;SDS011;410;48.954;9.474;2023-03-21T04:40:06;8.43;;;6.73;;
846;SDS011;410;48.954;9.474;2023-03-21T04:42:12;9.50;;;6.70;;
846;SDS011;410;48.954;9.474;2023-03-21T04:44:16;11.80;;;6.57;;
846;SDS011;410;48.954;9.474;2023-03-21T04:46:20;8.18;;;5.88;;
846;SDS011;410;48.954;9.474;2023-03-21T04:48:24;9.07;;;6.37;;
846;SDS011;410;48.954;9.474;2023-03-21T04:50:29;8.40;;;5.80;;
846;SDS011;410;48.954;9.474;2023-03-21T04:52:33;9.63;;;7.70;;
846;SDS011;410;48.954;9.474;2023-03-21T04:54:37;11.40;;;9.40;;
846;SDS011;410;48.954;9.474;2023-03-21T04:56:40;11.60;;;7.87;;
846;SDS011;410;48.954;9.474;2023-03-21T04:58:44;15.33;;;9.50;;
846;SDS011;410;48.954;9.474;2023-03-21T05:00:47;12.57;;;11.17;;
846;SDS011;410;48.954;9.474;2023-03-21T05:02:54;13.97;;;10.53;;
846;SDS011;410;48.954;9.474;2023-03-21T05:04:58;13.23;;;10.10;;
846;SDS011;410;48.954;9.474;2023-03-21T05:07:01;14.20;;;10.17;;
846;SDS011;410;48.954;9.474;2023-03-21T05:09:04;11.40;;;9.00;;
846;SDS011;410;48.954;9.474;2023-03-21T05:11:09;9.47;;;8.03;;
846;SDS011;410;48.954;9.474;2023-03-21T05:13:12;9.20;;;7.50;;
846;SDS011;410;48.954;9.474;2023-03-21T05:15:17;10.37;;;6.83;;
846;SDS011;410;48.954;9.474;2023-03-21T05:17:20;10.83;;;7.67;;
846;SDS011;410;48.954;9.474;2023-03-21T05:19:26;7.87;;;6.50;;
846;SDS011;410;48.954;9.474;2023-03-21T05:21:36;8.70;;;6.63;;
846;SDS011;410;48.954;9.474;2023-03-21T05:23:47;7.80;;;6.30;;
846;SDS011;410;48.954;9.474;2023-03-21T05:25:55;8.20;;;6.70;;
846;SDS011;410;48.954;9.474;2023-03-21T05:28:08;9.13;;;6.80;;
846;SDS011;410;48.954;9.474;2023-03-21T05:30:14;11.50;;;7.70;;
846;SDS011;410;48.954;9.474;2023-03-21T05:32:22;13.20;;;8.23;;
846;SDS011;410;48.954;9.474;2023-03-21T05:34:25;16.87;;;10.40;;
846;SDS011;410;48.954;9.474;2023-03-21T05:36:29;8.43;;;6.77;;
846;SDS011;410;48.954;9.474;2023-03-21T05:38:35;10.77;;;8.47;;
846;SDS011;410;48.954;9.474;2023-03-21T05:40:38;17.63;;;9.90;;
846;SDS011;410;48.954;9.474;2023-03-21T05:42:41;13.60;;;10.32;;
846;SDS011;410;48.954;9.474;2023-03-21T05:44:56;11.83;;;8.27;;
846;SDS011;410;48.954;9.474;2023-03-21T05:47:06;15.47;;;9.00;;
846;SDS011;410;48.954;9.474;2023-03-21T05:49:17;17.87;;;10.90;;
846;SDS011;410;48.954;9.474;2023-03-21T05:51:29;17.33;;;11.23;;
846;SDS011;410;48.954;9.474;2023-03-21T05:53:32;15.93;;;10.93;;
846;SDS011;410;48.954;9.474;2023-03-21T05:55:35;15.77;;;10.87;;
846;SDS011;410;48.954;9.474;2023-03-21T05:57:44;14.33;;;10.60;;
846;SDS011;410;48.954;9.474;2023-03-21T05:59:52;17.90;;;11.07;;
846;SDS011;410;48.954;9.474;2023-03-21T06:01:56;20.33;;;12.43;;
846;SDS011;410;48.954;9.474;2023-03-21T06:04:01;23.13;;;12.67;;
846;SDS011;410;48.954;9.474;2023-03-21T06:06:04;16.93;;;11.40;;
846;SDS011;410;48.954;9.474;2023-03-21T06:08:13;23.30;;;12.60;;
846;SDS011;410;48.954;9.474;2023-03-21T06:10:19;23.93;;;13.67;;
846;SDS011;410;48.954;9.474;2023-03-21T06:12:23;19.77;;;14.10;;
846;SDS011;410;48.954;9.474;2023-03-21T06:14:40;20.03;;;12.33;;
846;SDS011;410;48.954;9.474;2023-03-21T06:16:54;18.73;;;12.80;;
846;SDS011;410;48.954;9.474;2023-03-21T06:18:57;19.60;;;13.97;;
846;SDS011;410;48.954;9.474;2023-03-21T06:21:11;20.50;;;13.33;;
846;SDS011;410;48.954;9.474;2023-03-21T06:23:15;22.83;;;13.13;;
846;SDS011;410;48.954;9.474;2023-03-21T06:25:18;19.73;;;14.60;;
846;SDS011;410;48.954;9.474;2023-03-21T06:27:28;18.90;;;14.20;;
846;SDS011;410;48.954;9.474;2023-03-21T06:29:31;20.17;;;11.57;;
846;SDS011;410;48.954;9.474;2023-03-21T06:31:35;17.70;;;11.90;;
846;SDS011;410;48.954;9.474;2023-03-21T06:33:39;14.60;;;10.13;;
846;SDS011;410;48.954;9.474;2023-03-21T06:35:42;14.67;;;10.67;;
846;SDS011;410;48.954;9.474;2023-03-21T06:37:46;13.80;;;10.70;;
846;SDS011;410;48.954;9.474;2023-03-21T06:39:52;15.07;;;9.37;;
846;SDS011;410;48.954;9.474;2023-03-21T06:41:57;11.23;;;8.73;;
846;SDS011;410;48.954;9.474;2023-03-21T06:44:00;12.37;;;9.70;;
846;SDS011;410;48.954;9.474;2023-03-21T06:46:07;12.03;;;9.30;;
846;SDS011;410;48.954;9.474;2023-03-21T06:48:10;12.77;;;8.20;;
846;SDS011;410;48.954;9.474;2023-03-21T06:50:22;12.83;;;8.67;;
846;SDS011;410;48.954;9.474;2023-03-21T06:52:25;11.10;;;8.10;;
846;SDS011;410;48.954;9.474;2023-03-21T06:54:30;10.93;;;8.03;;
846;SDS011;410;48.954;9.474;2023-03-21T06:56:37;12.43;;;7.70;;
846;SDS011;410;48.954;9.474;2023-03-21T06:58:44;9.67;;;7.80;;
846;SDS011;410;48.954;9.474;2023-03-21T07:01:10;12.40;;;8.50;;
846;SDS011;410;48.954;9.474;2023-03-21T07:03:25;9.80;;;7.33;;
846;SDS011;410;48.954;9.474;2023-03-21T07:05:29;10.60;;;7.93;;
846;SDS011;410;48.954;9.474;2023-03-21T07:07:32;10.90;;;7.80;;
846;SDS011;410;48.954;9.474;2023-03-21T07:09:37;8.80;;;7.53;;
846;SDS011;410;48.954;9.474;2023-03-21T07:11:40;14.80;;;9.03;;
846;SDS011;410;48.954;9.474;2023-03-21T07:13:43;11.17;;;8.20;;
846;SDS011;410;48.954;9.474;2023-03-21T07:15:47;13.77;;;9.80;;
846;SDS011;410;48.954;9.474;2023-03-21T07:17:51;11.93;;;8.20;;
846;SDS011;410;48.954;9.474;2023-03-21T07:19:54;11.13;;;8.87;;
846;SDS011;410;48.954;9.474;2023-03-21T07:21:58;10.30;;;8.90;;
846;SDS011;410;48.954;9.474;2023-03-21T07:24:02;12.30;;;8.83;;
846;SDS011;410;48.954;9.474;2023-03-21T07:26:10;10.70;;;8.37;;
846;SDS011;410;48.954;9.474;2023-03-21T07:28:13;12.30;;;11.00;;
846;SDS011;410;48.954;9.474;2023-03-21T07:30:17;9.73;;;8.73;;
846;SDS011;410;48.954;9.474;2023-03-21T07:32:21;12.70;;;8.60;;
846;SDS011;410;48.954;9.474;2023-03-21T07:34:24;14.10;;;10.97;;
846;SDS011;410;48.954;9.474;2023-03-21T07:36:32;12.23;;;10.43;;
846;SDS011;410;48.954;9.474;2023-03-21T07:38:37;15.00;;;13.40;;
846;SDS011;410;48.954;9.474;2023-03-21T07:40:41;14.80;;;11.97;;
846;SDS011;410;48.954;9.474;2023-03-21T07:42:47;10.30;;;9.27;;
846;SDS011;410;48.954;9.474;2023-03-21T07:45:02;12.70;;;9.17;;
846;SDS011;410;48.954;9.474;2023-03-21T07:47:07;11.87;;;8.90;;
846;SDS011;410;48.954;9.474;2023-03-21T07:49:10;11.70;;;8.20;;
846;SDS011;410;48.954;9.474;2023-03-21T07:51:13;10.90;;;8.50;;
846;SDS011;410;48.954;9.474;2023-03-21T07:53:17;11.20;;;8.23;;
846;SDS011;410;48.954;9.474;2023-03-21T07:55:20;8.10;;;7.03;;
846;SDS011;410;48.954;9.474;2023-03-21T07:57:23;8.10;;;6.70;;
846;SDS011;410;48.954;9.474;2023-03-21T07:59:28;8.30;;;7.37;;
846;SDS011;410;48.954;9.474;2023-03-21T08:01:31;12.80;;;11.33;;
846;SDS011;410;48.954;9.474;2023-03-21T08:03:34;8.00;;;6.10;;
846;SDS011;410;48.954;9.474;2023-03-21T08:05:38;10.33;;;8.20;;
846;SDS011;410;48.954;9.474;2023-03-21T08:07:42;7.30;;;5.73;;
846;SDS011;410;48.954;9.474;2023-03-21T08:09:46;6.37;;;5.33;;
846;SDS011;410;48.954;9.474;2023-03-21T08:11:49;5.73;;;5.13;;
846;SDS011;410;48.954;9.474;2023-03-21T08:13:52;6.40;;;5.57;;
846;SDS011;410;48.954;9.474;2023-03-21T08:15:58;7.57;;;5.13;;
846;SDS011;410;48.954;9.474;2023-03-21T08:18:01;8.07;;;5.20;;
846;SDS011;410;48.954;9.474;2023-03-21T08:20:05;7.87;;;5.40;;
846;SDS011;410;48.954;9.474;2023-03-21T08:22:10;6.30;;;5.07;;
846;SDS011;410;48.954;9.474;2023-03-21T08:24:13;5.47;;;4.97;;
846;SDS011;410;48.954;9.474;2023-03-21T08:26:17;5.10;;;4.43;;
846;SDS011;410;48.954;9.474;2023-03-21T08:28:20;5.90;;;4.50;;
846;SDS011;410;48.954;9.474;2023-03-21T08:30:24;7.07;;;5.20;;
846;SDS011;410;48.954;9.474;2023-03-21T08:32:30;6.47;;;4.83;;
846;SDS011;410;48.954;9.474;2023-03-21T08:34:33;5.60;;;4.60;;
846;SDS011;410;48.954;9.474;2023-03-21T08:36:36;5.50;;;4.53;;
846;SDS011;410;48.954;9.474;2023-03-21T08:38:40;4.93;;;4.43;;
846;SDS011;410;48.954;9.474;2023-03-21T08:40:43;5.33;;;4.10;;
846;SDS011;410;48.954;9.474;2023-03-21T08:42:46;4.80;;;3.97;;
846;SDS011;410;48.954;9.474;2023-03-21T08:44:49;5.57;;;4.70;;
846;SDS011;410;48.954;9.474;2023-03-21T08:46:52;5.10;;;4.60;;
846;SDS011;410;48.954;9.474;2023-03-21T08:48:57;4.93;;;4.10;;
846;SDS011;410;48.954;9.474;2023-03-21T08:51:00;4.70;;;4.17;;
846;SDS011;410;48.954;9.474;2023-03-21T08:53:03;5.27;;;3.73;;
846;SDS011;410;48.954;9.474;2023-03-21T08:55:06;4.60;;;4.10;;
846;SDS011;410;48.954;9.474;2023-03-21T08:57:10;5.53;;;4.03;;
846;SDS011;410;48.954;9.474;2023-03-21T08:59:13;5.97;;;4.00;;
846;SDS011;410;48.954;9.474;2023-03-21T09:01:16;6.40;;;3.73;;
846;SDS011;410;48.954;9.474;2023-03-21T09:03:19;5.27;;;4.00;;
846;SDS011;410;48.954;9.474;2023-03-21T09:05:24;3.83;;;3.43;;
846;SDS011;410;48.954;9.474;2023-03-21T09:07:28;4.30;;;3.90;;
846;SDS011;410;48.954;9.474;2023-03-21T09:09:35;4.60;;;4.00;;
846;SDS011;410;48.954;9.474;2023-03-21T09:11:38;4.53;;;3.17;;
846;SDS011;410;48.954;9.474;2023-03-21T09:13:41;3.77;;;3.37;;
846;SDS011;410;48.954;9.474;2023-03-21T09:15:45;4.80;;;3.50;;
846;SDS011;410;48.954;9.474;2023-03-21T09:17:48;6.90;;;3.23;;
846;SDS011;410;48.954;9.474;2023-03-21T09:19:54;4.43;;;3.50;;
846;SDS011;410;48.954;9.474;2023-03-21T09:21:59;5.83;;;3.60;;
846;SDS011;410;48.954;9.474;2023-03-21T09:24:03;5.40;;;2.77;;
846;SDS011;410;48.954;9.474;2023-03-21T09:26:07;3.37;;;2.83;;
846;SDS011;410;48.954;9.474;2023-03-21T09:28:11;5.43;;;3.10;;
846;SDS011;410;48.954;9.474;2023-03-21T09:30:16;4.17;;;2.97;;
846;SDS011;410;48.954;9.474;2023-03-21T09:32:20;3.70;;;2.80;;
846;SDS011;410;48.954;9.474;2023-03-21T09:34:24;3.57;;;3.03;;
846;SDS011;410;48.954;9.474;2023-03-21T09:36:27;6.13;;;2.90;;
846;SDS011;410;48.954;9.474;2023-03-21T09:38:34;4.40;;;3.17;;
846;SDS011;410;48.954;9.474;2023-03-21T09:40:42;3.30;;;2.80;;
846;SDS011;410;48.954;9.474;2023-03-21T09:42:55;3.33;;;3.03;;
846;SDS011;410;48.954;9.474;2023-03-21T09:45:05;4.57;;;3.60;;
846;SDS011;410;48.954;9.474;2023-03-21T09:47:13;4.03;;;3.60;;
846;SDS011;410;48.954;9.474;2023-03-21T09:49:21;4.43;;;3.27;;
846;SDS011;410;48.954;9.474;2023-03-21T09:51:32;5.70;;;3.10;;
846;SDS011;410;48.954;9.474;2023-03-21T09:53:39;3.83;;;3.37;;
846;SDS011;410;48.954;9.474;2023-03-21T09:55:43;2.97;;;2.67;;
846;SDS011;410;48.954;9.474;2023-03-21T09:57:48;4.07;;;3.20;;
846;SDS011;410;48.954;9.474;2023-03-21T09:59:53;3.43;;;2.73;;
846;SDS011;410;48.954;9.474;2023-03-21T10:01:58;5.63;;;2.63;;
846;SDS011;410;48.954;9.474;2023-03-21T10:04:03;3.83;;;3.10;;
846;SDS011;410;48.954;9.474;2023-03-21T10:06:09;4.40;;;2.30;;
846;SDS011;410;48.954;9.474;2023-03-21T10:08:17;11.10;;;8.50;;
846;SDS011;410;48.954;9.474;2023-03-21T10:10:27;3.00;;;2.37;;
846;SDS011;410;48.954;9.474;2023-03-21T10:12:31;4.03;;;2.43;;
846;SDS011;410;48.954;9.474;2023-03-21T10:14:35;3.23;;;2.40;;
846;SDS011;410;48.954;9.474;2023-03-21T10:16:40;3.70;;;2.50;;
846;SDS011;410;48.954;9.474;2023-03-21T10:18:44;3.23;;;2.50;;
846;SDS011;410;48.954;9.474;2023-03-21T10:20:48;3.90;;;2.80;;
846;SDS011;410;48.954;9.474;2023-03-21T10:22:52;4.17;;;2.93;;
846;SDS011;410;48.954;9.474;2023-03-21T10:24:56;3.23;;;2.70;;
846;SDS011;410;48.954;9.474;2023-03-21T10:27:01;2.83;;;2.30;;
846;SDS011;410;48.954;9.474;2023-03-21T10:29:05;3.93;;;2.50;;
846;SDS011;410;48.954;9.474;2023-03-21T10:31:08;4.27;;;2.50;;
846;SDS011;410;48.954;9.474;2023-03-21T10:33:13;3.30;;;2.30;;
846;SDS011;410;48.954;9.474;2023-03-21T10:35:17;3.97;;;2.70;;
846;SDS011;410;48.954;9.474;2023-03-21T10:37:21;3.03;;;2.50;;
846;SDS011;410;48.954;9.474;2023-03-21T10:39:25;3.30;;;2.80;;
846;SDS011;410;48.954;9.474;2023-03-21T10:41:29;4.30;;;2.20;;
846;SDS011;410;48.954;9.474;2023-03-21T10:43:35;2.67;;;2.00;;
846;SDS011;410;48.954;9.474;2023-03-21T10:45:41;3.37;;;2.37;;
846;SDS011;410;48.954;9.474;2023-03-21T10:47:48;3.90;;;2.20;;
846;SDS011;410;48.954;9.474;2023-03-21T10:49:52;3.17;;;1.93;;
846;SDS011;410;48.954;9.474;2023-03-21T10:52:12;3.20;;;1.97;;
846;SDS011;410;48.954;9.474;2023-03-21T10:54:21;3.00;;;2.47;;
846;SDS011;410;48.954;9.474;2023-03-21T10:56:29;5.00;;;3.00;;
846;SDS011;410;48.954;9.474;2023-03-21T10:58:38;2.60;;;2.17;;
846;SDS011;410;48.954;9.474;2023-03-21T11:00:45;3.80;;;2.83;;
846;SDS011;410;48.954;9.474;2023-03-21T11:02:50;2.77;;;2.33;;
846;SDS011;410;48.954;9.474;2023-03-21T11:04:54;3.13;;;2.30;;
846;SDS011;410;48.954;9.474;2023-03-21T11:06:59;2.83;;;1.97;;
846;SDS011;410;48.954;9.474;2023-03-21T11:09:08;2.73;;;2.20;;
846;SDS011;410;48.954;9.474;2023-03-21T11:11:23;3.40;;;2.67;;
846;SDS011;410;48.954;9.474;2023-03-21T11:13:32;3.33;;;2.20;;
846;SDS011;410;48.954;9.474;2023-03-21T11:15:41;3.30;;;2.40;;
846;SDS011;410;48.954;9.474;2023-03-21T11:17:54;3.38;;;2.30;;
846;SDS011;410;48.954;9.474;2023-03-21T11:19:58;5.63;;;2.40;;
846;SDS011;410;48.954;9.474;2023-03-21T11:22:03;3.83;;;2.40;;
846;SDS011;410;48.954;9.474;2023-03-21T11:24:09;2.90;;;2.30;;
846;SDS011;410;48.954;9.474;2023-03-21T11:26:15;3.30;;;2.30;;
846;SDS011;410;48.954;9.474;2023-03-21T11:28:25;5.20;;;2.60;;
846;SDS011;410;48.954;9.474;2023-03-21T11:30:34;3.57;;;2.40;;
846;SDS011;410;48.954;9.474;2023-03-21T11:32:39;4.00;;;2.50;;
846;SDS011;410;48.954;9.474;2023-03-21T11:34:45;3.73;;;2.90;;
846;SDS011;410;48.954;9.474;2023-03-21T11:36:49;2.70;;;2.20;;
846;SDS011;410;48.954;9.474;2023-03-21T11:38:53;2.37;;;2.17;;
846;SDS011;410;48.954;9.474;2023-03-21T11:41:00;3.67;;;2.60;;
846;SDS011;410;48.954;9.474;2023-03-21T11:43:23;3.40;;;2.70;;
846;SDS011;410;48.954;9.474;2023-03-21T11:45:29;3.43;;;2.50;;
846;SDS011;410;48.954;9.474;2023-03-21T11:47:33;2.60;;;2.27;;
846;SDS011;410;48.954;9.474;2023-03-21T11:49:37;3.07;;;2.33;;
846;SDS011;410;48.954;9.474;2023-03-21T11:51:43;4.03;;;2.30;;
846;SDS011;410;48.954;9.474;2023-03-21T11:53:52;3.70;;;2.80;;
846;SDS011;410;48.954;9.474;2023-03-21T11:56:02;3.20;;;2.57;;
846;SDS011;410;48.954;9.474;2023-03-21T11:58:21;4.70;;;2.90;;
846;SDS011;410;48.954;9.474;2023-03-21T12:00:34;3.93;;;2.90;;
846;SDS011;410;48.954;9.474;2023-03-21T12:02:49;4.17;;;2.47;;
846;SDS011;410;48.954;9.474;2023-03-21T12:05:14;4.53;;;2.50;;
846;SDS011;410;48.954;9.474;2023-03-21T12:07:24;3.30;;;2.43;;
846;SDS011;410;48.954;9.474;2023-03-21T12:09:33;3.50;;;2.50;;
846;SDS011;410;48.954;9.474;2023-03-21T12:11:41;3.00;;;2.20;;
846;SDS011;410;48.954;9.474;2023-03-21T12:13:53;2.87;;;2.27;;
846;SDS011;410;48.954;9.474;2023-03-21T12:16:04;5.40;;;2.57;;
846;SDS011;410;48.954;9.474;2023-03-21T12:18:14;3.40;;;2.30;;
846;SDS011;410;48.954;9.474;2023-03-21T12:20:42;3.07;;;2.20;;
846;SDS011;410;48.954;9.474;2023-03-21T12:22:52;4.13;;;2.70;;
846;SDS011;410;48.954;9.474;2023-03-21T12:25:04;4.10;;;2.80;;
846;SDS011;410;48.954;9.474;2023-03-21T12:27:10;2.80;;;2.30;;
846;SDS011;410;48.954;9.474;2023-03-21T12:31:59;5.50;;;3.40;;
846;SDS011;410;48.954;9.474;2023-03-21T12:34:14;3.27;;;2.87;;
846;SDS011;410;48.954;9.474;2023-03-21T12:36:30;4.00;;;3.00;;
846;SDS011;410;48.954;9.474;2023-03-21T12:38:39;5.43;;;4.90;;
846;SDS011;410;48.954;9.474;2023-03-21T12:40:52;5.10;;;3.00;;
846;SDS011;410;48.954;9.474;2023-03-21T12:43:16;5.43;;;3.20;;
846;SDS011;410;48.954;9.474;2023-03-21T12:45:29;4.07;;;3.30;;
846;SDS011;410;48.954;9.474;2023-03-21T12:47:48;5.90;;;3.13;;
846;SDS011;410;48.954;9.474;2023-03-21T12:49:54;3.70;;;2.83;;
846;SDS011;410;48.954;9.474;2023-03-21T12:52:02;5.00;;;2.80;;
846;SDS011;410;48.954;9.474;2023-03-21T12:54:09;4.10;;;2.73;;
846;SDS011;410;48.954;9.474;2023-03-21T12:56:18;5.17;;;3.10;;
846;SDS011;410;48.954;9.474;2023-03-21T12:58:23;6.27;;;3.80;;
846;SDS011;410;48.954;9.474;2023-03-21T13:00:31;4.60;;;3.00;;
846;SDS011;410;48.954;9.474;2023-03-21T13:02:37;3.70;;;3.00;;
846;SDS011;410;48.954;9.474;2023-03-21T13:04:46;4.03;;;2.50;;
846;SDS011;410;48.954;9.474;2023-03-21T13:06:54;5.60;;;3.00;;
846;SDS011;410;48.954;9.474;2023-03-21T13:08:59;4.10;;;3.20;;
846;SDS011;410;48.954;9.474;2023-03-21T13:11:07;3.40;;;2.83;;
846;SDS011;410;48.954;9.474;2023-03-21T13:13:17;3.60;;;3.00;;
846;SDS011;410;48.954;9.474;2023-03-21T13:15:31;4.13;;;3.33;;
846;SDS011;410;48.954;9.474;2023-03-21T13:17:40;3.83;;;3.30;;
846;SDS011;410;48.954;9.474;2023-03-21T13:19:45;3.77;;;2.93;;
846;SDS011;410;48.954;9.474;2023-03-21T13:21:55;4.10;;;2.80;;
846;SDS011;410;48.954;9.474;2023-03-21T13:24:02;4.40;;;3.30;;
846;SDS011;410;48.954;9.474;2023-03-21T13:26:07;4.43;;;3.37;;
846;SDS011;410;48.954;9.474;2023-03-21T13:28:16;3.93;;;2.80;;
846;SDS011;410;48.954;9.474;2023-03-21T13:30:22;2.90;;;2.27;;
846;SDS011;410;48.954;9.474;2023-03-21T13:32:28;4.50;;;2.90;;
846;SDS011;410;48.954;9.474;2023-03-21T13:34:32;3.90;;;2.87;;
846;SDS011;410;48.954;9.474;2023-03-21T13:36:36;3.93;;;2.70;;
846;SDS011;410;48.954;9.474;2023-03-21T13:38:40;5.30;;;3.10;;
846;SDS011;410;48.954;9.474;2023-03-21T13:40:46;4.00;;;3.20;;
846;SDS011;410;48.954;9.474;2023-03-21T13:42:51;4.77;;;3.63;;
846;SDS011;410;48.954;9.474;2023-03-21T13:44:58;4.33;;;3.60;;
846;SDS011;410;48.954;9.474;2023-03-21T13:47:03;3.97;;;3.17;;
846;SDS011;410;48.954;9.474;2023-03-21T13:49:12;4.50;;;3.00;;
846;SDS011;410;48.954;9.474;2023-03-21T13:51:17;5.57;;;3.40;;